Time;durP1;ratioP1;P1;durP2;ratioP2;P2;SDS_P1;SDS_P2;PMS_P1;PMS_P2;Temp;Humidity;BMP_temperature;BMP_pressure;BME280_temperature;BME280_humidity;BME280_pressure;Samples;Min_cycle;Max_cycle;Signal;HPM_P1;HPM_P2
2021/08/15 00:00:53;;;;;;;4.75;3.00;;;17.90;99.90;;;;;;5007884;28;20214;-81
2021/08/15 00:03:20;;;;;;;5.05;3.13;;;17.90;99.90;;;;;;5008052;28;20215;-80
2021/08/15 00:05:46;;;;;;;6.90;2.70;;;17.80;99.90;;;;;;5007201;28;20581;-80
2021/08/15 00:08:14;;;;;;;4.72;2.85;;;17.80;99.90;;;;;;5007307;28;20584;-81
2021/08/15 00:10:42;;;;;;;5.35;2.75;;;17.80;99.90;;;;;;5007060;28;20211;-83
2021/08/15 00:13:10;;;;;;;5.32;2.67;;;17.80;99.90;;;;;;5007413;28;20235;-81
2021/08/15 00:15:37;;;;;;;5.15;2.58;;;17.80;99.90;;;;;;5006495;28;20213;-84
2021/08/15 00:18:04;;;;;;;5.72;3.10;;;17.80;99.90;;;;;;5009492;28;20203;-81
2021/08/15 00:20:31;;;;;;;3.53;2.55;;;17.80;99.90;;;;;;5015078;28;20252;-82
2021/08/15 00:22:58;;;;;;;4.25;3.05;;;17.80;99.90;;;;;;5029065;28;20203;-83
2021/08/15 00:25:27;;;;;;;5.45;3.38;;;17.70;99.90;;;;;;5021091;28;20270;-81
2021/08/15 00:27:54;;;;;;;4.65;2.95;;;17.70;99.90;;;;;;5007798;28;20671;-84
2021/08/15 00:30:20;;;;;;;14.02;3.80;;;17.70;99.90;;;;;;5012525;28;20199;-83
2021/08/15 00:32:48;;;;;;;5.75;3.22;;;17.70;99.90;;;;;;5029001;28;20241;-82
2021/08/15 00:35:15;;;;;;;4.57;2.70;;;17.70;99.90;;;;;;5030285;28;20199;-84
2021/08/15 00:37:42;;;;;;;6.18;3.25;;;17.70;99.90;;;;;;5028722;28;20246;-84
2021/08/15 00:40:10;;;;;;;4.45;2.88;;;17.70;99.90;;;;;;5011310;28;20211;-83
2021/08/15 00:42:38;;;;;;;5.93;2.80;;;17.60;99.90;;;;;;5009656;28;20203;-83
2021/08/15 00:45:06;;;;;;;4.15;2.53;;;17.60;99.90;;;;;;5009250;28;20195;-83
2021/08/15 00:47:33;;;;;;;4.18;2.50;;;17.60;99.90;;;;;;5023990;28;20225;-83
2021/08/15 00:50:00;;;;;;;3.95;2.85;;;17.60;99.90;;;;;;5028939;28;20606;-83
2021/08/15 00:52:27;;;;;;;3.45;2.63;;;17.60;99.90;;;;;;5009717;28;20318;-84
2021/08/15 00:54:56;;;;;;;6.50;2.75;;;17.60;99.90;;;;;;5009634;28;20205;-82
2021/08/15 00:57:24;;;;;;;7.93;3.25;;;17.60;99.90;;;;;;5009100;28;20219;-84
2021/08/15 00:59:52;;;;;;;5.20;2.80;;;17.60;99.90;;;;;;5009949;28;20199;-84
2021/08/15 01:02:19;;;;;;;6.00;2.90;;;17.60;99.90;;;;;;5009275;28;20214;-84
2021/08/15 01:04:46;;;;;;;5.95;3.17;;;17.50;99.90;;;;;;5009349;28;20211;-82
2021/08/15 01:07:14;;;;;;;4.80;3.20;;;17.50;99.90;;;;;;5008684;28;20234;-81
2021/08/15 01:09:41;;;;;;;5.00;3.00;;;17.50;99.90;;;;;;5009096;28;20618;-83
2021/08/15 01:12:08;;;;;;;6.65;3.15;;;17.50;99.90;;;;;;5009406;28;20286;-83
2021/08/15 01:14:35;;;;;;;6.28;3.58;;;17.50;99.90;;;;;;5009390;28;20227;-83
2021/08/15 01:17:04;;;;;;;8.73;3.28;;;17.50;99.90;;;;;;5007622;28;20203;-81
2021/08/15 01:19:31;;;;;;;7.72;2.90;;;17.50;99.90;;;;;;5008027;28;20415;-80
2021/08/15 01:21:59;;;;;;;4.43;2.83;;;17.50;99.90;;;;;;5006743;28;20202;-81
2021/08/15 01:24:27;;;;;;;5.35;2.63;;;17.50;99.90;;;;;;5008505;28;20199;-82
2021/08/15 01:26:56;;;;;;;4.38;2.70;;;17.40;99.90;;;;;;5026142;28;20202;-82
2021/08/15 01:29:25;;;;;;;4.35;2.60;;;17.50;99.90;;;;;;5026861;28;20207;-80
2021/08/15 01:31:51;;;;;;;3.70;2.90;;;17.40;99.90;;;;;;5025846;28;20203;-82
2021/08/15 01:34:18;;;;;;;5.93;2.90;;;17.40;99.90;;;;;;5030732;28;20309;-79
2021/08/15 01:36:45;;;;;;;8.90;3.28;;;17.40;99.90;;;;;;5022568;28;20243;-83
2021/08/15 01:39:12;;;;;;;5.22;3.40;;;17.40;99.90;;;;;;5008947;28;20214;-84
2021/08/15 01:41:38;;;;;;;5.75;3.33;;;17.40;99.90;;;;;;5009436;28;20203;-82
2021/08/15 01:44:05;;;;;;;7.13;3.45;;;17.40;99.90;;;;;;5025886;28;20198;-83
2021/08/15 01:46:34;;;;;;;5.00;3.10;;;17.40;99.90;;;;;;5028533;28;20302;-83
2021/08/15 01:49:02;;;;;;;8.00;3.13;;;17.40;99.90;;;;;;5022613;28;20595;-83
2021/08/15 01:51:30;;;;;;;6.65;3.30;;;17.40;99.90;;;;;;5007453;28;20214;-80
2021/08/15 01:54:00;;;;;;;6.38;3.70;;;17.40;99.90;;;;;;5007503;28;20345;-81
2021/08/15 01:56:26;;;;;;;6.88;3.03;;;17.40;99.90;;;;;;5022029;28;20210;-84
2021/08/15 01:58:53;;;;;;;8.00;3.50;;;17.40;99.90;;;;;;5026213;28;20629;-82
2021/08/15 02:01:21;;;;;;;6.72;2.97;;;17.40;99.90;;;;;;5026738;28;20206;-82
2021/08/15 02:03:50;;;;;;;8.13;3.95;;;17.40;99.90;;;;;;5015081;28;20453;-81
2021/08/15 02:06:18;;;;;;;6.38;3.50;;;17.40;99.90;;;;;;5007003;28;20199;-83
2021/08/15 02:08:45;;;;;;;5.13;3.22;;;17.50;99.90;;;;;;5006541;28;20667;-83
2021/08/15 02:11:11;;;;;;;3.63;2.83;;;17.40;99.90;;;;;;5006713;28;20222;-81
2021/08/15 02:13:38;;;;;;;7.45;3.78;;;17.40;99.90;;;;;;5006530;28;20559;-83
2021/08/15 02:16:05;;;;;;;6.00;3.40;;;17.50;99.90;;;;;;5023517;28;20214;-82
2021/08/15 02:18:32;;;;;;;6.82;3.50;;;17.50;99.90;;;;;;5026053;28;20511;-83
2021/08/15 02:21:00;;;;;;;5.75;3.47;;;17.50;99.90;;;;;;5025731;28;20583;-81
2021/08/15 02:23:27;;;;;;;6.28;3.90;;;17.50;99.90;;;;;;5026253;28;20206;-80
2021/08/15 02:25:54;;;;;;;6.90;3.13;;;17.50;99.90;;;;;;5024882;28;20868;-83
2021/08/15 02:28:21;;;;;;;7.88;3.67;;;17.50;99.90;;;;;;5026204;28;20207;-83
2021/08/15 02:30:47;;;;;;;4.63;3.35;;;17.40;99.90;;;;;;5020736;28;20222;-81
2021/08/15 02:33:14;;;;;;;5.32;3.40;;;17.40;99.90;;;;;;5006192;28;20231;-82
2021/08/15 02:35:41;;;;;;;5.13;3.30;;;17.40;99.90;;;;;;5005183;28;20199;-83
2021/08/15 02:38:10;;;;;;;5.78;3.15;;;17.40;99.90;;;;;;5006322;28;20247;-83
2021/08/15 02:40:37;;;;;;;7.10;3.75;;;17.30;99.90;;;;;;5009192;28;20219;-81
2021/08/15 02:43:04;;;;;;;6.47;3.70;;;17.30;99.90;;;;;;5009586;28;20242;-79
2021/08/15 02:45:31;;;;;;;6.25;3.17;;;17.30;99.90;;;;;;5008478;28;20668;-83
2021/08/15 02:47:58;;;;;;;6.68;3.97;;;17.30;99.90;;;;;;5008537;28;20203;-82
2021/08/15 02:50:25;;;;;;;5.88;3.17;;;17.30;99.90;;;;;;5019852;28;20222;-84
2021/08/15 02:52:52;;;;;;;9.30;3.70;;;17.20;99.90;;;;;;5022734;28;20203;-82
2021/08/15 02:55:20;;;;;;;6.82;3.63;;;17.20;99.90;;;;;;5014080;28;20206;-83
2021/08/15 02:57:47;;;;;;;6.95;3.70;;;17.20;99.90;;;;;;5010703;28;20198;-81
2021/08/15 03:00:14;;;;;;;5.45;3.30;;;17.20;99.90;;;;;;5014635;28;20258;-81
2021/08/15 03:02:41;;;;;;;6.57;3.25;;;17.20;99.90;;;;;;5013299;28;20207;-82
2021/08/15 03:05:10;;;;;;;3.63;2.72;;;17.20;99.90;;;;;;5010786;28;20287;-82
2021/08/15 03:07:37;;;;;;;3.53;2.92;;;17.20;99.90;;;;;;5010392;28;20199;-83
2021/08/15 03:10:06;;;;;;;9.48;3.85;;;17.10;99.90;;;;;;5010494;28;20215;-83
2021/08/15 03:12:34;;;;;;;5.90;3.72;;;17.10;99.90;;;;;;5010693;28;20200;-83
2021/08/15 03:15:01;;;;;;;9.75;3.88;;;17.10;99.90;;;;;;5010270;28;20231;-83
2021/08/15 03:17:28;;;;;;;5.18;3.60;;;17.10;99.90;;;;;;5009921;28;20203;-83
2021/08/15 03:19:54;;;;;;;8.38;3.72;;;17.10;99.90;;;;;;5009564;28;20618;-83
2021/08/15 03:22:21;;;;;;;7.32;3.60;;;17.10;99.90;;;;;;5010796;28;20211;-82
2021/08/15 03:24:48;;;;;;;7.47;3.53;;;17.10;99.90;;;;;;5011261;28;20218;-81
2021/08/15 03:27:14;;;;;;;6.93;3.70;;;17.10;99.90;;;;;;5014596;28;20202;-82
2021/08/15 03:29:43;;;;;;;8.32;4.28;;;17.10;99.90;;;;;;5014025;28;20258;-83
2021/08/15 03:32:09;;;;;;;7.68;4.10;;;17.10;99.90;;;;;;5014206;28;20217;-83
2021/08/15 03:34:36;;;;;;;6.60;4.20;;;17.10;99.90;;;;;;5029790;28;20230;-83
2021/08/15 03:37:03;;;;;;;6.75;3.85;;;17.10;99.90;;;;;;5028117;28;20229;-81
2021/08/15 03:39:30;;;;;;;8.23;4.20;;;17.10;99.90;;;;;;5028236;28;20194;-82
2021/08/15 03:41:59;;;;;;;8.23;4.28;;;17.10;99.90;;;;;;5027748;28;20210;-83
2021/08/15 03:44:27;;;;;;;7.80;4.30;;;17.10;99.90;;;;;;5029295;28;20508;-83
2021/08/15 03:46:56;;;;;;;9.63;4.15;;;17.10;99.90;;;;;;5028165;28;20199;-80
2021/08/15 03:49:24;;;;;;;8.60;4.85;;;17.10;99.90;;;;;;5028116;28;20596;-80
2021/08/15 03:51:51;;;;;;;9.10;4.30;;;17.10;99.90;;;;;;5012212;28;20211;-81
2021/08/15 03:54:20;;;;;;;8.68;4.03;;;17.10;99.90;;;;;;5009180;28;20242;-84
2021/08/15 03:56:47;;;;;;;8.80;4.40;;;17.10;99.90;;;;;;5008607;28;20207;-81
2021/08/15 03:59:15;;;;;;;5.80;4.43;;;17.10;99.90;;;;;;5008764;28;20603;-83
2021/08/15 04:01:41;;;;;;;8.82;4.15;;;17.10;99.90;;;;;;5008500;28;20238;-84
2021/08/15 04:04:10;;;;;;;8.82;4.45;;;17.10;99.90;;;;;;5007714;28;20216;-81
2021/08/15 04:06:37;;;;;;;7.72;4.35;;;17.10;99.90;;;;;;5008589;28;20667;-82
2021/08/15 04:09:05;;;;;;;7.30;4.22;;;17.10;99.90;;;;;;5008297;28;20210;-79
2021/08/15 04:11:31;;;;;;;10.50;4.70;;;17.20;99.90;;;;;;5007434;28;20222;-79
2021/08/15 04:13:59;;;;;;;8.98;4.80;;;17.10;99.90;;;;;;5006816;28;20223;-80
2021/08/15 04:16:26;;;;;;;8.55;4.93;;;17.20;99.90;;;;;;5011461;28;20200;-81
2021/08/15 04:18:54;;;;;;;8.32;4.47;;;17.20;99.90;;;;;;5015643;28;20202;-80
2021/08/15 04:21:23;;;;;;;8.98;4.60;;;17.20;99.90;;;;;;5009245;28;20207;-81
2021/08/15 04:23:49;;;;;;;10.05;4.78;;;17.20;99.90;;;;;;5008583;28;20203;-82
2021/08/15 04:26:16;;;;;;;8.40;4.53;;;17.20;99.90;;;;;;5008733;28;20203;-82
2021/08/15 04:28:43;;;;;;;10.93;4.70;;;17.20;99.90;;;;;;5008552;28;20203;-82
2021/08/15 04:31:10;;;;;;;10.15;5.35;;;17.20;99.90;;;;;;5008460;28;20203;-81
2021/08/15 04:33:37;;;;;;;12.52;5.22;;;17.20;99.90;;;;;;5010544;28;20237;-81
2021/08/15 04:36:04;;;;;;;10.35;5.95;;;17.20;99.90;;;;;;5010858;28;20207;-82
2021/08/15 04:38:33;;;;;;;8.70;4.72;;;17.20;99.90;;;;;;5008700;28;20191;-82
2021/08/15 04:40:59;;;;;;;9.60;5.30;;;17.30;99.90;;;;;;5008808;28;20281;-81
2021/08/15 04:43:26;;;;;;;10.32;5.00;;;17.30;99.90;;;;;;5011712;28;20214;-83
2021/08/15 04:45:53;;;;;;;7.72;4.72;;;17.20;99.90;;;;;;5027723;28;20195;-81
2021/08/15 04:48:20;;;;;;;11.68;6.03;;;17.30;99.90;;;;;;5026750;28;20198;-82
2021/08/15 04:50:47;;;;;;;11.13;5.07;;;17.20;99.90;;;;;;5025570;28;20607;-82
2021/08/15 04:53:13;;;;;;;11.65;5.18;;;17.20;99.90;;;;;;5020263;28;20600;-82
2021/08/15 04:55:41;;;;;;;7.60;4.88;;;17.30;99.90;;;;;;5009435;28;20231;-83
2021/08/15 04:58:08;;;;;;;9.27;5.38;;;17.30;99.90;;;;;;5009940;28;20207;-83
2021/08/15 05:00:35;;;;;;;8.98;5.03;;;17.30;99.90;;;;;;5009092;28;20199;-82
2021/08/15 05:03:03;;;;;;;11.75;5.20;;;17.30;99.90;;;;;;5009643;28;20211;-83
2021/08/15 05:05:30;;;;;;;9.43;4.78;;;17.30;99.90;;;;;;5009836;28;20583;-82
2021/08/15 05:07:56;;;;;;;10.27;5.10;;;17.30;99.90;;;;;;5008529;28;20202;-82
2021/08/15 05:10:23;;;;;;;12.38;5.78;;;17.30;99.90;;;;;;5025287;28;20214;-84
2021/08/15 05:12:52;;;;;;;9.27;4.82;;;17.30;99.90;;;;;;5029370;28;20202;-84
2021/08/15 05:15:18;;;;;;;11.52;5.07;;;17.40;99.90;;;;;;5027767;28;20218;-81
2021/08/15 05:17:45;;;;;;;10.77;5.13;;;17.30;99.90;;;;;;5025086;28;20530;-82
2021/08/15 05:20:13;;;;;;;10.13;5.22;;;17.40;99.90;;;;;;5007207;28;20203;-82
2021/08/15 05:22:40;;;;;;;9.57;5.03;;;17.40;99.90;;;;;;5007216;28;20210;-82
2021/08/15 05:25:08;;;;;;;11.07;5.72;;;17.40;99.90;;;;;;5007385;28;20195;-83
2021/08/15 05:27:35;;;;;;;11.65;5.05;;;17.50;99.90;;;;;;5007863;28;20206;-81
2021/08/15 05:30:04;;;;;;;11.50;5.60;;;17.50;99.90;;;;;;5006477;28;20207;-81
2021/08/15 05:32:30;;;;;;;7.93;4.85;;;17.50;99.90;;;;;;5005639;28;20257;-81
2021/08/15 05:34:57;;;;;;;11.93;5.43;;;17.50;99.90;;;;;;5008375;28;20227;-81
2021/08/15 05:37:24;;;;;;;11.75;5.53;;;17.60;99.90;;;;;;5010043;28;20223;-82
2021/08/15 05:39:51;;;;;;;14.13;6.07;;;17.60;99.90;;;;;;5010066;28;20206;-81
2021/08/15 05:42:18;;;;;;;11.07;5.55;;;17.60;99.90;;;;;;5009107;28;20293;-82
2021/08/15 05:44:44;;;;;;;15.25;6.15;;;17.70;99.90;;;;;;5008788;28;20199;-82
2021/08/15 05:47:13;;;;;;;12.65;6.47;;;17.70;99.90;;;;;;5009150;28;20217;-83
2021/08/15 05:49:39;;;;;;;10.93;6.05;;;17.80;99.90;;;;;;5007912;28;20604;-83
2021/08/15 05:52:06;;;;;;;11.35;6.25;;;17.80;99.90;;;;;;5008382;28;20882;-82
2021/08/15 05:54:33;;;;;;;13.52;6.80;;;17.80;99.90;;;;;;5019548;28;20322;-83
2021/08/15 05:57:00;;;;;;;14.55;6.45;;;17.90;99.90;;;;;;5027848;28;20198;-83
2021/08/15 05:59:27;;;;;;;13.38;6.15;;;17.90;99.90;;;;;;5016241;28;20219;-81
2021/08/15 06:01:55;;;;;;;15.85;7.88;;;18.00;99.90;;;;;;5008260;28;20555;-84
2021/08/15 06:04:23;;;;;;;14.32;6.65;;;18.10;99.90;;;;;;5008045;28;20214;-84
2021/08/15 06:06:50;;;;;;;13.43;6.40;;;18.20;99.90;;;;;;5008119;28;20199;-86
2021/08/15 06:09:17;;;;;;;11.50;6.53;;;18.30;99.90;;;;;;5009141;28;20208;-84
2021/08/15 06:11:43;;;;;;;16.83;7.13;;;18.40;99.90;;;;;;5016666;28;20230;-84
2021/08/15 06:14:10;;;;;;;14.48;6.55;;;18.50;99.90;;;;;;5031692;28;20218;-82
2021/08/15 06:16:37;;;;;;;17.88;7.28;;;18.60;99.90;;;;;;5030755;28;20202;-82
2021/08/15 06:19:04;;;;;;;11.27;5.78;;;18.70;99.90;;;;;;5031236;28;20213;-84
2021/08/15 06:21:32;;;;;;;17.15;6.82;;;18.70;99.90;;;;;;5011571;28;20202;-84
2021/08/15 06:23:59;;;;;;;12.98;6.05;;;18.80;99.90;;;;;;5020728;28;20606;-81
2021/08/15 06:26:26;;;;;;;13.05;6.20;;;18.90;99.90;;;;;;5031347;28;20565;-82
2021/08/15 06:28:52;;;;;;;14.77;6.72;;;19.00;99.90;;;;;;5030885;28;20621;-81
2021/08/15 06:31:20;;;;;;;15.45;6.32;;;19.20;99.90;;;;;;5015584;28;20211;-83
2021/08/15 06:33:47;;;;;;;20.08;6.40;;;19.40;99.90;;;;;;5011066;28;20239;-83
2021/08/15 06:36:14;;;;;;;14.18;6.90;;;19.40;99.90;;;;;;5010899;28;20231;-80
2021/08/15 06:38:42;;;;;;;11.65;6.32;;;19.40;99.90;;;;;;5012163;28;20203;-86
2021/08/15 06:41:09;;;;;;;11.98;6.18;;;19.50;99.90;;;;;;5011745;28;20200;-82
2021/08/15 06:44:32;;;;;;;14.50;5.93;;;19.60;99.90;;;;;;5012817;28;20398;-83
2021/08/15 06:46:58;;;;;;;13.68;5.88;;;19.90;99.90;;;;;;5030441;28;20210;-83
2021/08/15 06:49:25;;;;;;;17.75;6.68;;;20.20;99.90;;;;;;5016923;28;20203;-81
2021/08/15 06:51:52;;;;;;;14.10;6.03;;;20.50;99.90;;;;;;5014246;28;20203;-84
2021/08/15 06:54:20;;;;;;;17.67;6.57;;;20.60;99.90;;;;;;5013114;28;20623;-84
2021/08/15 06:56:47;;;;;;;14.70;6.32;;;20.90;99.90;;;;;;5011847;28;20207;-83
2021/08/15 06:59:14;;;;;;;10.93;5.43;;;21.10;99.90;;;;;;5011264;28;20670;-86
2021/08/15 07:01:44;;;;;;;15.35;6.68;;;21.20;99.90;;;;;;5005671;28;20293;-85
2021/08/15 07:04:10;;;;;;;11.40;5.80;;;21.40;99.90;;;;;;5024752;28;20210;-81
2021/08/15 07:06:37;;;;;;;11.43;5.72;;;21.70;99.90;;;;;;5029972;28;20206;-82
2021/08/15 07:09:04;;;;;;;10.90;5.75;;;21.90;99.90;;;;;;5014205;28;20228;-89
2021/08/15 07:11:32;;;;;;;12.38;5.82;;;22.10;99.90;;;;;;5012329;28;20238;-81
2021/08/15 07:13:59;;;;;;;13.25;5.63;;;22.40;99.90;;;;;;5009299;28;20200;-85
2021/08/15 07:16:25;;;;;;;9.55;5.28;;;22.60;99.90;;;;;;5009864;28;20231;-82
2021/08/15 07:18:52;;;;;;;15.55;5.65;;;22.60;99.90;;;;;;5011428;28;20218;-86
2021/08/15 07:21:19;;;;;;;13.52;6.03;;;22.60;99.90;;;;;;5030509;28;20195;-87
2021/08/15 07:23:46;;;;;;;8.68;4.45;;;22.50;99.90;;;;;;5029998;28;20234;-88
2021/08/15 07:26:13;;;;;;;10.60;5.57;;;22.40;99.90;;;;;;5030829;28;20205;-87
2021/08/15 07:28:41;;;;;;;12.38;5.38;;;22.40;99.90;;;;;;5026864;28;20203;-83
2021/08/15 07:31:08;;;;;;;13.88;5.38;;;22.50;99.90;;;;;;5011046;28;20778;-82
2021/08/15 07:33:36;;;;;;;12.82;5.50;;;22.70;99.90;;;;;;5010805;28;20227;-85
2021/08/15 07:36:03;;;;;;;9.30;4.65;;;23.00;99.90;;;;;;5011085;28;20223;-84
2021/08/15 07:38:30;;;;;;;11.23;5.47;;;23.10;99.90;;;;;;5011705;28;20799;-82
2021/08/15 07:40:57;;;;;;;10.52;5.45;;;23.20;99.90;;;;;;5010885;28;20209;-85
2021/08/15 07:43:23;;;;;;;10.48;4.90;;;23.30;99.90;;;;;;5012534;28;20222;-82
2021/08/15 07:45:52;;;;;;;12.30;5.45;;;23.50;99.90;;;;;;5010680;28;20199;-85
2021/08/15 07:48:19;;;;;;;10.85;5.65;;;23.80;99.90;;;;;;5011363;28;20207;-83
2021/08/15 07:50:46;;;;;;;12.13;5.97;;;23.80;99.90;;;;;;5010120;28;20222;-82
2021/08/15 07:53:21;;;;;;;11.27;5.70;;;23.70;99.90;;;;;;5010622;28;20196;-83
2021/08/15 07:55:49;;;;;;;10.05;5.20;;;23.50;99.90;;;;;;5009671;28;20537;-82
2021/08/15 07:58:16;;;;;;;12.38;6.00;;;23.50;99.90;;;;;;5010732;28;20215;-84
2021/08/15 08:00:43;;;;;;;11.95;5.85;;;23.20;99.90;;;;;;5010468;28;20203;-85
2021/08/15 08:03:12;;;;;;;7.80;4.93;;;23.10;99.90;;;;;;5009504;28;20853;-84
2021/08/15 08:05:39;;;;;;;10.60;6.00;;;23.10;99.90;;;;;;5007901;28;20211;-81
2021/08/15 08:08:06;;;;;;;10.80;6.15;;;23.20;99.90;;;;;;5009469;28;20359;-84
2021/08/15 08:10:34;;;;;;;13.95;6.55;;;23.20;99.90;;;;;;5011009;28;20211;-86
2021/08/15 08:13:00;;;;;;;13.40;5.65;;;23.30;99.90;;;;;;5022337;28;20194;-86
2021/08/15 08:15:27;;;;;;;16.58;6.13;;;23.40;99.90;;;;;;5015801;28;20480;-87
2021/08/15 08:17:54;;;;;;;13.98;5.90;;;23.40;99.90;;;;;;5014688;28;20210;-84
2021/08/15 08:20:22;;;;;;;10.45;5.82;;;23.30;99.90;;;;;;5013282;28;20203;-84
2021/08/15 08:22:50;;;;;;;10.57;5.40;;;23.30;99.90;;;;;;5012402;28;20207;-87
2021/08/15 08:25:17;;;;;;;11.88;5.47;;;23.20;99.90;;;;;;5024052;28;20207;-86
2021/08/15 08:27:45;;;;;;;10.30;5.25;;;23.30;99.90;;;;;;5031843;28;20209;-85
2021/08/15 08:30:13;;;;;;;18.60;6.15;;;23.60;99.90;;;;;;5013043;28;20215;-84
2021/08/15 08:32:39;;;;;;;10.68;5.90;;;24.00;99.90;;;;;;5012473;28;20215;-84
2021/08/15 08:35:07;;;;;;;10.48;5.47;;;24.30;99.90;;;;;;5010922;28;20238;-84
2021/08/15 08:37:36;;;;;;;12.15;5.65;;;24.70;99.90;;;;;;5031414;28;20234;-82
2021/08/15 08:40:04;;;;;;;16.75;6.25;;;24.80;99.90;;;;;;5045306;28;20202;-84
2021/08/15 08:42:31;;;;;;;15.73;6.28;;;25.10;99.90;;;;;;5042490;28;20211;-83
2021/08/15 08:45:02;;;;;;;14.82;5.80;;;25.40;99.90;;;;;;5020689;28;20703;-84
2021/08/15 08:47:29;;;;;;;10.88;5.18;;;25.50;99.90;;;;;;5017181;28;20309;-82
2021/08/15 08:49:57;;;;;;;12.70;5.47;;;25.70;99.90;;;;;;5016524;28;20281;-85
2021/08/15 08:52:26;;;;;;;10.45;5.38;;;25.80;99.90;;;;;;5034202;28;20210;-83
2021/08/15 08:54:54;;;;;;;11.35;5.45;;;26.00;99.90;;;;;;5030039;28;20549;-85
2021/08/15 08:57:21;;;;;;;12.30;5.82;;;26.10;99.90;;;;;;5029519;28;20206;-86
2021/08/15 08:59:47;;;;;;;12.23;5.70;;;26.20;99.90;;;;;;5018299;28;20284;-82
2021/08/15 09:02:15;;;;;;;10.80;5.50;;;26.40;99.90;;;;;;5008354;28;20191;-84
2021/08/15 09:04:42;;;;;;;13.07;5.47;;;26.50;99.90;;;;;;5008203;28;20265;-85
2021/08/15 09:07:13;;;;;;;12.82;5.85;;;26.50;99.90;;;;;;5007202;28;20207;-82
2021/08/15 09:09:41;;;;;;;10.50;5.28;;;26.60;99.90;;;;;;5006668;28;20196;-83
2021/08/15 09:12:12;;;;;;;9.60;4.97;;;26.60;99.90;;;;;;5007872;28;20206;-81
2021/08/15 09:14:39;;;;;;;8.43;4.97;;;26.70;99.90;;;;;;5006403;28;20198;-84
2021/08/15 09:17:08;;;;;;;12.23;5.63;;;26.90;99.90;;;;;;5007968;28;20230;-83
2021/08/15 09:19:37;;;;;;;12.23;5.75;;;27.00;99.90;;;;;;5013028;28;20210;-83
2021/08/15 09:22:21;;;;;;;8.63;4.70;;;27.00;99.90;;;;;;5025444;28;20607;-81
2021/08/15 09:24:53;;;;;;;10.70;5.63;;;27.20;99.90;;;;;;5006058;28;20214;-81
2021/08/15 09:27:24;;;;;;;12.68;5.40;;;27.30;99.90;;;;;;5005753;28;20210;-82
2021/08/15 09:30:15;;;;;;;9.00;4.82;;;27.30;99.90;;;;;;5006391;28;20252;-81
2021/08/15 09:32:51;;;;;;;11.73;5.72;;;27.30;99.90;;;;;;5005894;28;20722;-83
2021/08/15 09:35:24;;;;;;;11.73;4.93;;;27.50;99.90;;;;;;5017506;28;20229;-82
2021/08/15 09:38:04;;;;;;;11.15;5.07;;;27.50;99.90;;;;;;5025981;28;20238;-83
2021/08/15 09:40:34;;;;;;;9.70;4.47;;;27.50;99.90;;;;;;5025073;28;20204;-82
2021/08/15 09:43:05;;;;;;;11.00;5.45;;;27.30;99.90;;;;;;5025423;28;20206;-81
2021/08/15 09:45:44;;;;;;;10.20;4.93;;;27.20;99.90;;;;;;5026742;28;20607;-81
2021/08/15 09:48:30;;;;;;;9.45;4.72;;;27.30;99.90;;;;;;5014748;28;20210;-82
2021/08/15 09:51:10;;;;;;;11.13;4.65;;;27.20;99.90;;;;;;5009845;28;20210;-82
2021/08/15 09:53:38;;;;;;;11.85;4.68;;;27.20;99.90;;;;;;5009588;28;20901;-81
2021/08/15 09:56:05;;;;;;;8.98;4.95;;;27.20;99.90;;;;;;5017360;28;20249;-79
2021/08/15 09:58:34;;;;;;;9.30;5.03;;;27.20;99.90;;;;;;5024173;28;20214;-80
2021/08/15 10:01:04;;;;;;;11.73;5.30;;;27.20;99.90;;;;;;5008924;28;20203;-80
2021/08/15 10:03:31;;;;;;;9.70;4.95;;;27.10;99.90;;;;;;5008381;28;20219;-80
2021/08/15 10:05:59;;;;;;;10.45;5.30;;;27.10;99.90;;;;;;5008559;28;20595;-83
2021/08/15 10:08:25;;;;;;;12.10;5.65;;;27.10;99.90;;;;;;5010239;28;20210;-83
2021/08/15 10:10:53;;;;;;;10.02;5.05;;;27.10;99.90;;;;;;5009203;28;20211;-82
2021/08/15 10:13:20;;;;;;;13.55;5.68;;;27.10;99.90;;;;;;5010024;28;20207;-83
2021/08/15 10:16:02;;;;;;;10.80;5.03;;;26.90;99.90;;;;;;5008615;28;20223;-82
2021/08/15 10:18:30;;;;;;;10.50;4.53;;;26.80;99.90;;;;;;5005109;28;20563;-84
2021/08/15 10:21:08;;;;;;;12.48;5.07;;;26.80;99.90;;;;;;5008436;28;20203;-84
2021/08/15 10:23:38;;;;;;;10.73;4.78;;;26.90;99.90;;;;;;5008538;28;20207;-81
2021/08/15 10:26:26;;;;;;;13.15;5.30;;;26.80;99.90;;;;;;5008214;28;20314;-83
2021/08/15 10:28:53;;;;;;;9.88;4.75;;;26.80;99.90;;;;;;5008770;28;20292;-81
2021/08/15 10:31:21;;;;;;;10.77;4.75;;;26.70;99.90;;;;;;5008079;28;20211;-79
2021/08/15 10:33:56;;;;;;;9.57;4.90;;;26.80;99.90;;;;;;5007805;28;20711;-80
2021/08/15 10:36:28;;;;;;;9.93;5.00;;;26.80;99.90;;;;;;5007857;28;20670;-82
2021/08/15 10:38:57;;;;;;;10.90;5.13;;;27.00;99.90;;;;;;5007663;28;20625;-83
2021/08/15 10:41:53;;;;;;;11.38;5.05;;;27.10;99.90;;;;;;5008008;28;20214;-83
2021/08/15 10:44:21;;;;;;;8.68;4.28;;;27.10;99.90;;;;;;5023843;28;20214;-82
2021/08/15 10:47:17;;;;;;;11.50;5.28;;;27.20;99.90;;;;;;5024910;28;20210;-84
2021/08/15 10:49:52;;;;;;;9.98;4.75;;;27.10;99.90;;;;;;5034713;28;20202;-85
2021/08/15 10:52:37;;;;;;;9.82;4.40;;;27.00;99.90;;;;;;5030058;28;20217;-82
2021/08/15 10:55:16;;;;;;;11.05;4.60;;;27.10;99.90;;;;;;5027308;28;20210;-81
2021/08/15 10:57:49;;;;;;;11.35;4.75;;;27.20;99.90;;;;;;5027214;28;20309;-82
2021/08/15 11:00:50;;;;;;;10.82;4.53;;;27.20;99.90;;;;;;5025984;28;20199;-82
2021/08/15 11:03:53;;;;;;;9.60;4.63;;;27.30;99.90;;;;;;5023348;28;20214;-83
2021/08/15 11:06:48;;;;;;;9.85;4.25;;;27.40;99.90;;;;;;5024076;28;20210;-82
2021/08/15 11:09:16;;;;;;;6.63;3.58;;;27.40;99.90;;;;;;5024097;28;20318;-79
2021/08/15 11:12:06;;;;;;;11.93;4.90;;;27.60;99.90;;;;;;5023196;28;20355;-80
2021/08/15 11:14:33;;;;;;;8.38;3.83;;;27.70;99.90;;;;;;5023407;28;20653;-80
2021/08/15 11:17:15;;;;;;;8.70;4.32;;;27.70;99.90;;;;;;5021224;28;20230;-82
2021/08/15 11:19:44;;;;;;;10.18;4.43;;;27.60;99.90;;;;;;5023008;28;20215;-80
2021/08/15 11:22:14;;;;;;;10.52;3.92;;;27.40;99.90;;;;;;5027483;28;20213;-81
2021/08/15 11:24:52;;;;;;;11.73;4.50;;;27.40;99.90;;;;;;5020210;28;20219;-82
2021/08/15 11:27:30;;;;;;;8.13;4.43;;;27.40;99.90;;;;;;5007645;28;20215;-84
2021/08/15 11:29:58;;;;;;;11.55;4.40;;;27.60;99.90;;;;;;5008266;28;21195;-82
2021/08/15 11:32:27;;;;;;;7.55;4.35;;;27.40;99.90;;;;;;5008319;28;20219;-83
2021/08/15 11:34:59;;;;;;;11.27;4.97;;;27.40;99.90;;;;;;5007424;28;20208;-83
2021/08/15 11:37:27;;;;;;;7.65;4.20;;;27.40;99.90;;;;;;5007817;28;20243;-83
2021/08/15 11:39:54;;;;;;;11.85;4.60;;;27.50;99.90;;;;;;5009857;28;20212;-83
2021/08/15 11:42:23;;;;;;;7.82;4.00;;;27.60;99.90;;;;;;5008117;28;20200;-79
2021/08/15 11:44:56;;;;;;;7.60;3.95;;;27.60;99.90;;;;;;5008527;28;20211;-82
2021/08/15 11:47:24;;;;;;;9.90;4.75;;;27.70;99.90;;;;;;5021638;28;20195;-82
2021/08/15 11:49:52;;;;;;;7.88;3.78;;;27.60;99.90;;;;;;5025909;28;20199;-83
2021/08/15 11:52:22;;;;;;;10.65;4.45;;;27.50;99.90;;;;;;5015807;28;20588;-83
2021/08/15 11:54:50;;;;;;;7.70;3.92;;;27.40;99.90;;;;;;5007130;28;20207;-80
2021/08/15 11:57:17;;;;;;;7.57;3.67;;;27.40;99.90;;;;;;5006648;28;20230;-83
2021/08/15 11:59:45;;;;;;;8.20;4.18;;;27.40;99.90;;;;;;5007346;28;20199;-82
2021/08/15 12:02:17;;;;;;;8.35;3.83;;;27.30;99.90;;;;;;5007819;28;20580;-82
2021/08/15 12:04:46;;;;;;;10.77;4.03;;;27.30;99.90;;;;;;5007308;28;20214;-80
2021/08/15 12:07:14;;;;;;;7.35;3.75;;;27.40;99.90;;;;;;5007621;28;20614;-80
2021/08/15 12:09:42;;;;;;;6.97;3.47;;;27.20;99.90;;;;;;5005724;28;20203;-80
2021/08/15 12:12:12;;;;;;;10.75;4.20;;;27.10;99.90;;;;;;5007488;28;20207;-84
2021/08/15 12:14:41;;;;;;;7.40;3.80;;;27.00;99.90;;;;;;5008406;28;20211;-85
2021/08/15 12:17:09;;;;;;;8.10;3.92;;;26.90;99.90;;;;;;5008450;28;20248;-86
2021/08/15 12:19:37;;;;;;;9.52;4.07;;;27.00;99.90;;;;;;5011357;28;20214;-79
2021/08/15 12:22:16;;;;;;;8.18;4.63;;;27.00;99.90;;;;;;5006332;28;20623;-82
2021/08/15 12:24:46;;;;;;;9.07;4.18;;;27.00;99.90;;;;;;5006383;28;20293;-84
2021/08/15 12:27:12;;;;;;;7.30;3.60;;;26.70;99.90;;;;;;5007760;28;20283;-79
2021/08/15 12:29:42;;;;;;;8.13;4.22;;;26.70;99.90;;;;;;5006840;28;20222;-81
2021/08/15 12:32:11;;;;;;;9.50;3.70;;;26.90;99.90;;;;;;5005810;28;20238;-82
2021/08/15 12:34:40;;;;;;;6.75;3.53;;;27.00;99.90;;;;;;5006983;28;20211;-80
2021/08/15 12:37:16;;;;;;;9.27;3.70;;;27.00;99.90;;;;;;5006168;28;20235;-82
2021/08/15 12:39:46;;;;;;;11.02;4.80;;;27.20;99.90;;;;;;5007322;28;20211;-82
2021/08/15 12:42:15;;;;;;;5.72;3.95;;;26.90;99.90;;;;;;5006817;28;20215;-81
2021/08/15 12:44:51;;;;;;;8.60;3.67;;;26.80;99.90;;;;;;5005871;28;20199;-82
2021/08/15 12:47:25;;;;;;;7.07;3.95;;;26.90;99.90;;;;;;5007276;28;20195;-79
2021/08/15 12:49:53;;;;;;;7.55;4.00;;;26.90;99.90;;;;;;5005693;28;20188;-81
2021/08/15 12:52:25;;;;;;;10.13;4.00;;;26.80;99.90;;;;;;5006245;28;20282;-79